Aérodrome :
LOGIN :

S'inscrire | Disclaimer

   EN    FR    IT 

 










Légende :    VFR   VFR Marginal   IFR   IFR Intensif   IFR Très Intensif
Visi : 
Plafond : 
>= 8 km
>= 3000ft
5 à 8 km
1000 à 3000 ft
1500m à 5 km
500 à 1000 ft
800 à 1500m
200 à 500 ft
< 800m
< 200 ft
Symboles :   Orages  Brouillard  Fortes neiges  Fortes précipitations  Vent > 20 kt
SIGMETs :   Divers  Orages  Givrage  Turbulence  Onde Orograph.  Cendres Volcan.







- Altitude de l'aérodrome : 203 ft
- Code IATA : XMJ
- Voir les cartes d'approche


LFBM - Mont-De-Marsan

DERNIER METAR :
  • 182230Z AUTO 08005KT CAVOK 15/06 Q1016 NOSIG

METARs EXPIRÉS :
  • 182200Z AUTO 07006KT CAVOK 15/07 Q1016 NOSIG
  • 182130Z AUTO 07007KT CAVOK 15/07 Q1016 NOSIG
  • 182100Z AUTO 09005KT CAVOK 16/07 Q1015 NOSIG
  • 182030Z AUTO 08009KT CAVOK 16/08 Q1015 NOSIG
  • 182000Z AUTO 08006KT CAVOK 16/09 Q1015 NOSIG

TAF TAF LFBM
Valide du 18 à 21h jusqu'au 19 à 21h UTC


182000Z 1821/1921 09005KT CAVOK
PROB30
TEMPO 1905/1909 BKN010
TEMPO 1910/1920 09010G20KT
Pas de NOTAMs connus pour ce terrain.
2 SIGMETs publiés pour la FIR Bordeaux (LFBB) :
 
Turbulence forte
LFBB SIGMET 6 VALID 190100/190500 LFPW
LFBB BORDEAUX FIR/UIR SEV TURB FCST WI N4400 E00245 - N4315 E00230 - N4300 E00215 - N4330 E00130 - N4400 E00245 SFC/FL050 STNR NC=
Turbulence forte
LFBB SIGMET 5 VALID 182100/190100 LFPW
LFBB BORDEAUX FIR/UIR SEV TURB FCST WI N4415 E00245 - N4315 E00230 - N4245 E00215 - N4330 E00130 - N4415 E00230 SFC/FL060 STNR NC=



MET'MAP, la Météo Aéronautique d'un coup d'oeil ! - Copyright ORBIFLY Décembre 2007 - Disclaimer

ORBIFLY MET'MAP TEAM :

Programmation & Développement : Alexandra Zaïnal
Conception & Développement : Baudouin d'Aumeries
Co-Programmation & Développement : Marc-Olivier Méhu
Soutien technique & logistique : Manuel Goepfert

Contact : metmap@orbifly.com




SOURCES & CREDITS :

   NOAA